sensor_id;sensor_type;location;lat;lon;timestamp;P1;durP1;ratioP1;P2;durP2;ratioP2
71204;SDS011;58935;54.498;18.544;2023-04-24T00:00:28;17.00;;;14.80;;
71204;SDS011;58935;54.498;18.544;2023-04-24T00:02:55;17.40;;;14.20;;
71204;SDS011;58935;54.498;18.544;2023-04-24T00:05:22;17.30;;;12.90;;
71204;SDS011;58935;54.498;18.544;2023-04-24T00:07:50;15.20;;;13.30;;
71204;SDS011;58935;54.498;18.544;2023-04-24T00:10:18;14.30;;;12.80;;
71204;SDS011;58935;54.498;18.544;2023-04-24T00:12:44;15.70;;;12.80;;
71204;SDS011;58935;54.498;18.544;2023-04-24T00:15:10;16.00;;;12.30;;
71204;SDS011;58935;54.498;18.544;2023-04-24T00:17:36;15.20;;;12.90;;
71204;SDS011;58935;54.498;18.544;2023-04-24T00:20:05;13.10;;;11.80;;
71204;SDS011;58935;54.498;18.544;2023-04-24T00:22:32;13.30;;;11.70;;
71204;SDS011;58935;54.498;18.544;2023-04-24T00:24:58;13.00;;;11.60;;
71204;SDS011;58935;54.498;18.544;2023-04-24T00:27:24;14.10;;;12.40;;
71204;SDS011;58935;54.498;18.544;2023-04-24T00:29:49;15.40;;;13.40;;
71204;SDS011;58935;54.498;18.544;2023-04-24T00:32:15;14.50;;;13.00;;
71204;SDS011;58935;54.498;18.544;2023-04-24T00:34:41;14.00;;;12.60;;
71204;SDS011;58935;54.498;18.544;2023-04-24T00:37:07;14.20;;;12.60;;
71204;SDS011;58935;54.498;18.544;2023-04-24T00:39:33;13.80;;;12.40;;
71204;SDS011;58935;54.498;18.544;2023-04-24T00:41:59;16.50;;;13.40;;
71204;SDS011;58935;54.498;18.544;2023-04-24T00:44:25;16.70;;;12.90;;
71204;SDS011;58935;54.498;18.544;2023-04-24T00:46:51;15.60;;;13.60;;
71204;SDS011;58935;54.498;18.544;2023-04-24T00:49:22;16.70;;;14.20;;
71204;SDS011;58935;54.498;18.544;2023-04-24T00:51:48;15.50;;;13.60;;
71204;SDS011;58935;54.498;18.544;2023-04-24T00:54:15;16.50;;;13.50;;
71204;SDS011;58935;54.498;18.544;2023-04-24T00:56:41;21.80;;;14.70;;
71204;SDS011;58935;54.498;18.544;2023-04-24T00:59:15;17.70;;;14.50;;
71204;SDS011;58935;54.498;18.544;2023-04-24T01:01:44;16.90;;;14.70;;
71204;SDS011;58935;54.498;18.544;2023-04-24T01:04:12;15.30;;;13.70;;
71204;SDS011;58935;54.498;18.544;2023-04-24T01:06:39;16.60;;;14.70;;
71204;SDS011;58935;54.498;18.544;2023-04-24T01:09:08;18.60;;;14.70;;
71204;SDS011;58935;54.498;18.544;2023-04-24T01:11:37;17.20;;;14.40;;
71204;SDS011;58935;54.498;18.544;2023-04-24T01:14:03;15.90;;;14.20;;
71204;SDS011;58935;54.498;18.544;2023-04-24T01:16:29;15.90;;;14.30;;
71204;SDS011;58935;54.498;18.544;2023-04-24T01:18:54;16.40;;;14.20;;
71204;SDS011;58935;54.498;18.544;2023-04-24T01:21:23;16.60;;;14.80;;
71204;SDS011;58935;54.498;18.544;2023-04-24T01:23:52;19.90;;;16.50;;
71204;SDS011;58935;54.498;18.544;2023-04-24T01:26:22;21.40;;;17.40;;
71204;SDS011;58935;54.498;18.544;2023-04-24T01:28:48;20.70;;;18.30;;
71204;SDS011;58935;54.498;18.544;2023-04-24T01:31:14;23.80;;;20.40;;
71204;SDS011;58935;54.498;18.544;2023-04-24T01:33:41;25.10;;;20.80;;
71204;SDS011;58935;54.498;18.544;2023-04-24T01:36:12;22.00;;;19.20;;
71204;SDS011;58935;54.498;18.544;2023-04-24T01:38:39;20.40;;;15.90;;
71204;SDS011;58935;54.498;18.544;2023-04-24T01:41:06;19.00;;;16.20;;
71204;SDS011;58935;54.498;18.544;2023-04-24T01:43:32;21.60;;;17.50;;
71204;SDS011;58935;54.498;18.544;2023-04-24T01:45:58;21.70;;;15.60;;
71204;SDS011;58935;54.498;18.544;2023-04-24T01:48:23;21.10;;;18.20;;
71204;SDS011;58935;54.498;18.544;2023-04-24T01:50:49;25.50;;;18.40;;
71204;SDS011;58935;54.498;18.544;2023-04-24T01:53:15;25.30;;;20.70;;
71204;SDS011;58935;54.498;18.544;2023-04-24T01:55:41;30.90;;;23.60;;
71204;SDS011;58935;54.498;18.544;2023-04-24T01:58:06;28.20;;;22.90;;
71204;SDS011;58935;54.498;18.544;2023-04-24T02:00:32;27.10;;;22.40;;
71204;SDS011;58935;54.498;18.544;2023-04-24T02:02:58;26.50;;;21.70;;
71204;SDS011;58935;54.498;18.544;2023-04-24T02:05:23;26.30;;;21.30;;
71204;SDS011;58935;54.498;18.544;2023-04-24T02:07:52;23.00;;;19.20;;
71204;SDS011;58935;54.498;18.544;2023-04-24T02:10:17;22.70;;;16.80;;
71204;SDS011;58935;54.498;18.544;2023-04-24T02:12:43;22.10;;;18.30;;
71204;SDS011;58935;54.498;18.544;2023-04-24T02:15:09;20.30;;;17.00;;
71204;SDS011;58935;54.498;18.544;2023-04-24T02:17:35;23.20;;;18.00;;
71204;SDS011;58935;54.498;18.544;2023-04-24T02:20:01;22.60;;;17.60;;
71204;SDS011;58935;54.498;18.544;2023-04-24T02:22:27;19.60;;;17.40;;
71204;SDS011;58935;54.498;18.544;2023-04-24T02:24:52;23.90;;;18.70;;
71204;SDS011;58935;54.498;18.544;2023-04-24T02:27:20;22.90;;;18.70;;
71204;SDS011;58935;54.498;18.544;2023-04-24T02:29:46;25.00;;;19.10;;
71204;SDS011;58935;54.498;18.544;2023-04-24T02:32:11;20.10;;;18.00;;
71204;SDS011;58935;54.498;18.544;2023-04-24T02:34:37;21.20;;;16.70;;
71204;SDS011;58935;54.498;18.544;2023-04-24T02:37:03;20.60;;;15.10;;
71204;SDS011;58935;54.498;18.544;2023-04-24T02:39:29;22.60;;;16.90;;
71204;SDS011;58935;54.498;18.544;2023-04-24T02:41:54;21.60;;;17.40;;
71204;SDS011;58935;54.498;18.544;2023-04-24T02:44:25;31.00;;;17.30;;
71204;SDS011;58935;54.498;18.544;2023-04-24T02:46:50;21.20;;;16.40;;
71204;SDS011;58935;54.498;18.544;2023-04-24T02:49:15;24.20;;;15.60;;
71204;SDS011;58935;54.498;18.544;2023-04-24T02:51:41;17.30;;;14.70;;
71204;SDS011;58935;54.498;18.544;2023-04-24T02:54:08;19.90;;;15.80;;
71204;SDS011;58935;54.498;18.544;2023-04-24T02:56:38;20.90;;;13.90;;
71204;SDS011;58935;54.498;18.544;2023-04-24T02:59:03;20.40;;;13.50;;
71204;SDS011;58935;54.498;18.544;2023-04-24T03:01:29;18.70;;;13.20;;
71204;SDS011;58935;54.498;18.544;2023-04-24T03:03:55;13.70;;;12.30;;
71204;SDS011;58935;54.498;18.544;2023-04-24T03:06:20;19.10;;;13.20;;
71204;SDS011;58935;54.498;18.544;2023-04-24T03:08:46;24.20;;;13.00;;
71204;SDS011;58935;54.498;18.544;2023-04-24T03:11:12;16.70;;;13.20;;
71204;SDS011;58935;54.498;18.544;2023-04-24T03:13:37;18.10;;;13.30;;
71204;SDS011;58935;54.498;18.544;2023-04-24T03:16:03;16.30;;;12.10;;
71204;SDS011;58935;54.498;18.544;2023-04-24T03:18:29;20.40;;;12.20;;
71204;SDS011;58935;54.498;18.544;2023-04-24T03:20:55;17.40;;;12.30;;
71204;SDS011;58935;54.498;18.544;2023-04-24T03:23:21;19.20;;;12.70;;
71204;SDS011;58935;54.498;18.544;2023-04-24T03:25:46;20.60;;;13.30;;
71204;SDS011;58935;54.498;18.544;2023-04-24T03:28:13;18.60;;;13.60;;
71204;SDS011;58935;54.498;18.544;2023-04-24T03:30:39;19.10;;;12.70;;
71204;SDS011;58935;54.498;18.544;2023-04-24T03:33:05;20.20;;;12.70;;
71204;SDS011;58935;54.498;18.544;2023-04-24T03:35:31;21.60;;;13.30;;
71204;SDS011;58935;54.498;18.544;2023-04-24T03:37:57;21.40;;;14.10;;
71204;SDS011;58935;54.498;18.544;2023-04-24T03:40:22;23.50;;;14.40;;
71204;SDS011;58935;54.498;18.544;2023-04-24T03:42:47;19.70;;;13.60;;
71204;SDS011;58935;54.498;18.544;2023-04-24T03:45:13;25.70;;;15.10;;
71204;SDS011;58935;54.498;18.544;2023-04-24T03:47:38;30.90;;;16.20;;
71204;SDS011;58935;54.498;18.544;2023-04-24T03:50:04;28.00;;;15.60;;
71204;SDS011;58935;54.498;18.544;2023-04-24T03:52:30;26.60;;;15.10;;
71204;SDS011;58935;54.498;18.544;2023-04-24T03:54:56;27.50;;;14.20;;
71204;SDS011;58935;54.498;18.544;2023-04-24T03:57:21;25.60;;;13.20;;
71204;SDS011;58935;54.498;18.544;2023-04-24T03:59:47;24.20;;;14.10;;
71204;SDS011;58935;54.498;18.544;2023-04-24T04:02:12;27.30;;;14.50;;
71204;SDS011;58935;54.498;18.544;2023-04-24T04:04:38;23.80;;;13.80;;
71204;SDS011;58935;54.498;18.544;2023-04-24T04:07:03;33.20;;;14.60;;
71204;SDS011;58935;54.498;18.544;2023-04-24T04:09:30;25.80;;;14.50;;
71204;SDS011;58935;54.498;18.544;2023-04-24T04:11:56;26.60;;;15.30;;
71204;SDS011;58935;54.498;18.544;2023-04-24T04:14:22;34.10;;;15.30;;
71204;SDS011;58935;54.498;18.544;2023-04-24T04:16:48;25.30;;;14.20;;
71204;SDS011;58935;54.498;18.544;2023-04-24T04:19:14;26.20;;;14.40;;
71204;SDS011;58935;54.498;18.544;2023-04-24T04:21:40;39.10;;;15.30;;
71204;SDS011;58935;54.498;18.544;2023-04-24T04:24:05;32.50;;;15.20;;
71204;SDS011;58935;54.498;18.544;2023-04-24T04:26:32;30.30;;;15.70;;
71204;SDS011;58935;54.498;18.544;2023-04-24T04:28:59;41.60;;;16.10;;
71204;SDS011;58935;54.498;18.544;2023-04-24T04:31:26;48.80;;;17.70;;
71204;SDS011;58935;54.498;18.544;2023-04-24T04:33:51;30.40;;;17.90;;
71204;SDS011;58935;54.498;18.544;2023-04-24T04:36:17;26.70;;;15.50;;
71204;SDS011;58935;54.498;18.544;2023-04-24T04:38:42;27.40;;;16.20;;
71204;SDS011;58935;54.498;18.544;2023-04-24T04:41:10;24.20;;;15.70;;
71204;SDS011;58935;54.498;18.544;2023-04-24T04:43:36;25.90;;;15.50;;
71204;SDS011;58935;54.498;18.544;2023-04-24T04:46:03;32.30;;;16.40;;
71204;SDS011;58935;54.498;18.544;2023-04-24T04:48:28;31.20;;;18.00;;
71204;SDS011;58935;54.498;18.544;2023-04-24T04:50:57;27.90;;;16.70;;
71204;SDS011;58935;54.498;18.544;2023-04-24T04:53:23;26.90;;;16.70;;
71204;SDS011;58935;54.498;18.544;2023-04-24T04:55:48;26.70;;;16.30;;
71204;SDS011;58935;54.498;18.544;2023-04-24T04:58:17;29.90;;;18.10;;
71204;SDS011;58935;54.498;18.544;2023-04-24T05:00:42;27.90;;;17.20;;
71204;SDS011;58935;54.498;18.544;2023-04-24T05:03:08;24.20;;;16.90;;
71204;SDS011;58935;54.498;18.544;2023-04-24T05:05:33;138.30;;;19.60;;
71204;SDS011;58935;54.498;18.544;2023-04-24T05:08:06;26.30;;;16.80;;
71204;SDS011;58935;54.498;18.544;2023-04-24T05:10:32;25.20;;;16.90;;
71204;SDS011;58935;54.498;18.544;2023-04-24T05:12:58;33.50;;;20.80;;
71204;SDS011;58935;54.498;18.544;2023-04-24T05:15:23;35.60;;;20.20;;
71204;SDS011;58935;54.498;18.544;2023-04-24T05:17:49;38.40;;;18.10;;
71204;SDS011;58935;54.498;18.544;2023-04-24T05:20:15;48.40;;;19.00;;
71204;SDS011;58935;54.498;18.544;2023-04-24T05:22:40;36.20;;;18.50;;
71204;SDS011;58935;54.498;18.544;2023-04-24T05:25:06;32.70;;;17.40;;
71204;SDS011;58935;54.498;18.544;2023-04-24T05:27:32;24.60;;;17.20;;
71204;SDS011;58935;54.498;18.544;2023-04-24T05:29:58;43.10;;;16.70;;
71204;SDS011;58935;54.498;18.544;2023-04-24T05:32:24;32.40;;;16.60;;
71204;SDS011;58935;54.498;18.544;2023-04-24T05:34:49;23.90;;;16.60;;
71204;SDS011;58935;54.498;18.544;2023-04-24T05:37:15;23.40;;;16.30;;
71204;SDS011;58935;54.498;18.544;2023-04-24T05:39:40;23.40;;;16.40;;
71204;SDS011;58935;54.498;18.544;2023-04-24T05:42:06;21.80;;;15.30;;
71204;SDS011;58935;54.498;18.544;2023-04-24T05:44:32;28.20;;;16.60;;
71204;SDS011;58935;54.498;18.544;2023-04-24T05:46:57;23.20;;;15.60;;
71204;SDS011;58935;54.498;18.544;2023-04-24T05:49:23;28.70;;;16.90;;
71204;SDS011;58935;54.498;18.544;2023-04-24T05:51:48;23.70;;;16.40;;
71204;SDS011;58935;54.498;18.544;2023-04-24T05:54:14;60.10;;;37.40;;
71204;SDS011;58935;54.498;18.544;2023-04-24T05:56:40;26.80;;;17.10;;
71204;SDS011;58935;54.498;18.544;2023-04-24T05:59:06;28.00;;;16.20;;
71204;SDS011;58935;54.498;18.544;2023-04-24T06:01:34;21.10;;;15.20;;
71204;SDS011;58935;54.498;18.544;2023-04-24T06:03:59;20.30;;;15.00;;
71204;SDS011;58935;54.498;18.544;2023-04-24T06:06:25;31.90;;;16.40;;
71204;SDS011;58935;54.498;18.544;2023-04-24T06:08:52;20.90;;;14.50;;
71204;SDS011;58935;54.498;18.544;2023-04-24T06:11:18;22.70;;;13.30;;
71204;SDS011;58935;54.498;18.544;2023-04-24T06:13:43;18.60;;;13.50;;
71204;SDS011;58935;54.498;18.544;2023-04-24T06:16:09;14.00;;;10.70;;
71204;SDS011;58935;54.498;18.544;2023-04-24T06:18:34;17.20;;;11.40;;
71204;SDS011;58935;54.498;18.544;2023-04-24T06:21:03;15.50;;;10.40;;
71204;SDS011;58935;54.498;18.544;2023-04-24T06:23:29;12.90;;;9.70;;
71204;SDS011;58935;54.498;18.544;2023-04-24T06:25:54;13.60;;;10.00;;
71204;SDS011;58935;54.498;18.544;2023-04-24T06:28:20;10.70;;;7.90;;
71204;SDS011;58935;54.498;18.544;2023-04-24T06:30:45;16.80;;;8.20;;
71204;SDS011;58935;54.498;18.544;2023-04-24T06:33:10;11.60;;;7.80;;
71204;SDS011;58935;54.498;18.544;2023-04-24T06:35:36;11.60;;;8.00;;
71204;SDS011;58935;54.498;18.544;2023-04-24T06:38:03;7.80;;;7.00;;
71204;SDS011;58935;54.498;18.544;2023-04-24T06:40:28;17.70;;;7.30;;
71204;SDS011;58935;54.498;18.544;2023-04-24T06:42:54;7.70;;;6.10;;
71204;SDS011;58935;54.498;18.544;2023-04-24T06:45:19;13.20;;;7.10;;
71204;SDS011;58935;54.498;18.544;2023-04-24T06:47:45;8.50;;;5.80;;
71204;SDS011;58935;54.498;18.544;2023-04-24T06:50:15;9.90;;;6.30;;
71204;SDS011;58935;54.498;18.544;2023-04-24T06:52:41;9.50;;;7.90;;
71204;SDS011;58935;54.498;18.544;2023-04-24T06:55:08;8.90;;;7.00;;
71204;SDS011;58935;54.498;18.544;2023-04-24T06:57:36;5.80;;;5.30;;
71204;SDS011;58935;54.498;18.544;2023-04-24T07:00:05;7.90;;;4.60;;
71204;SDS011;58935;54.498;18.544;2023-04-24T07:02:34;5.00;;;4.60;;
71204;SDS011;58935;54.498;18.544;2023-04-24T07:05:00;8.80;;;4.40;;
71204;SDS011;58935;54.498;18.544;2023-04-24T07:07:26;5.00;;;4.60;;
71204;SDS011;58935;54.498;18.544;2023-04-24T07:09:52;40.40;;;6.00;;
71204;SDS011;58935;54.498;18.544;2023-04-24T07:12:19;8.30;;;4.50;;
71204;SDS011;58935;54.498;18.544;2023-04-24T07:14:47;6.30;;;4.90;;
71204;SDS011;58935;54.498;18.544;2023-04-24T07:17:13;5.20;;;4.40;;
71204;SDS011;58935;54.498;18.544;2023-04-24T07:19:38;4.30;;;3.90;;
71204;SDS011;58935;54.498;18.544;2023-04-24T07:22:04;4.50;;;4.00;;
71204;SDS011;58935;54.498;18.544;2023-04-24T07:24:30;5.20;;;4.80;;
71204;SDS011;58935;54.498;18.544;2023-04-24T07:26:57;5.30;;;4.80;;
71204;SDS011;58935;54.498;18.544;2023-04-24T07:29:22;4.40;;;4.00;;
71204;SDS011;58935;54.498;18.544;2023-04-24T07:31:48;5.20;;;4.80;;
71204;SDS011;58935;54.498;18.544;2023-04-24T07:34:13;62.80;;;6.90;;
71204;SDS011;58935;54.498;18.544;2023-04-24T07:36:40;9.80;;;5.40;;
71204;SDS011;58935;54.498;18.544;2023-04-24T07:39:06;9.80;;;6.30;;
71204;SDS011;58935;54.498;18.544;2023-04-24T07:41:33;12.90;;;7.30;;
71204;SDS011;58935;54.498;18.544;2023-04-24T07:43:58;10.80;;;7.30;;
71204;SDS011;58935;54.498;18.544;2023-04-24T07:46:24;6.90;;;6.00;;
71204;SDS011;58935;54.498;18.544;2023-04-24T07:48:50;8.60;;;7.60;;
71204;SDS011;58935;54.498;18.544;2023-04-24T07:51:19;6.40;;;5.80;;
71204;SDS011;58935;54.498;18.544;2023-04-24T07:53:44;8.10;;;5.70;;
71204;SDS011;58935;54.498;18.544;2023-04-24T07:56:10;7.90;;;6.30;;
71204;SDS011;58935;54.498;18.544;2023-04-24T07:58:36;7.30;;;5.70;;
71204;SDS011;58935;54.498;18.544;2023-04-24T08:01:01;6.20;;;5.30;;
71204;SDS011;58935;54.498;18.544;2023-04-24T08:03:27;5.80;;;5.30;;
71204;SDS011;58935;54.498;18.544;2023-04-24T08:05:53;5.40;;;5.00;;
71204;SDS011;58935;54.498;18.544;2023-04-24T08:08:22;6.90;;;6.20;;
71204;SDS011;58935;54.498;18.544;2023-04-24T08:10:48;6.50;;;5.90;;
71204;SDS011;58935;54.498;18.544;2023-04-24T08:13:17;6.60;;;5.80;;
71204;SDS011;58935;54.498;18.544;2023-04-24T08:15:45;7.10;;;6.30;;
71204;SDS011;58935;54.498;18.544;2023-04-24T08:18:11;5.90;;;5.50;;
71204;SDS011;58935;54.498;18.544;2023-04-24T08:20:37;7.10;;;5.50;;
71204;SDS011;58935;54.498;18.544;2023-04-24T08:23:03;5.70;;;5.20;;
71204;SDS011;58935;54.498;18.544;2023-04-24T08:25:30;7.30;;;6.70;;
71204;SDS011;58935;54.498;18.544;2023-04-24T08:27:58;5.10;;;4.70;;
71204;SDS011;58935;54.498;18.544;2023-04-24T08:30:24;8.40;;;7.60;;
71204;SDS011;58935;54.498;18.544;2023-04-24T08:32:49;6.10;;;5.50;;
71204;SDS011;58935;54.498;18.544;2023-04-24T08:35:17;6.50;;;5.90;;
71204;SDS011;58935;54.498;18.544;2023-04-24T08:37:43;8.30;;;6.50;;
71204;SDS011;58935;54.498;18.544;2023-04-24T08:40:13;7.50;;;6.80;;
71204;SDS011;58935;54.498;18.544;2023-04-24T08:42:43;7.60;;;6.90;;
71204;SDS011;58935;54.498;18.544;2023-04-24T08:45:13;7.90;;;7.10;;
71204;SDS011;58935;54.498;18.544;2023-04-24T08:47:40;8.90;;;8.00;;
71204;SDS011;58935;54.498;18.544;2023-04-24T08:50:08;9.10;;;7.90;;
71204;SDS011;58935;54.498;18.544;2023-04-24T08:52:35;9.50;;;7.80;;
71204;SDS011;58935;54.498;18.544;2023-04-24T08:55:03;9.60;;;8.20;;
71204;SDS011;58935;54.498;18.544;2023-04-24T08:57:29;8.90;;;7.90;;
71204;SDS011;58935;54.498;18.544;2023-04-24T08:59:57;13.40;;;7.80;;
71204;SDS011;58935;54.498;18.544;2023-04-24T09:02:23;9.50;;;8.40;;
71204;SDS011;58935;54.498;18.544;2023-04-24T09:04:50;11.40;;;9.40;;
71204;SDS011;58935;54.498;18.544;2023-04-24T09:07:18;13.10;;;11.40;;
71204;SDS011;58935;54.498;18.544;2023-04-24T09:09:45;17.50;;;11.50;;
71204;SDS011;58935;54.498;18.544;2023-04-24T09:12:16;13.50;;;10.90;;
71204;SDS011;58935;54.498;18.544;2023-04-24T09:14:42;13.10;;;11.10;;
71204;SDS011;58935;54.498;18.544;2023-04-24T09:17:10;12.40;;;10.50;;
71204;SDS011;58935;54.498;18.544;2023-04-24T09:19:37;17.10;;;12.00;;
71204;SDS011;58935;54.498;18.544;2023-04-24T09:22:23;15.00;;;12.30;;
71204;SDS011;58935;54.498;18.544;2023-04-24T09:25:02;13.50;;;11.30;;
71204;SDS011;58935;54.498;18.544;2023-04-24T09:27:31;11.90;;;10.30;;
71204;SDS011;58935;54.498;18.544;2023-04-24T09:29:57;13.10;;;11.30;;
71204;SDS011;58935;54.498;18.544;2023-04-24T09:32:24;18.80;;;12.60;;
71204;SDS011;58935;54.498;18.544;2023-04-24T09:35:06;14.50;;;11.10;;
71204;SDS011;58935;54.498;18.544;2023-04-24T09:37:44;16.50;;;12.50;;
71204;SDS011;58935;54.498;18.544;2023-04-24T09:40:15;20.40;;;12.50;;
71204;SDS011;58935;54.498;18.544;2023-04-24T09:42:51;14.60;;;11.50;;
71204;SDS011;58935;54.498;18.544;2023-04-24T09:45:19;16.30;;;12.10;;
71204;SDS011;58935;54.498;18.544;2023-04-24T09:47:45;17.60;;;12.20;;
71204;SDS011;58935;54.498;18.544;2023-04-24T09:50:15;16.10;;;13.00;;
71204;SDS011;58935;54.498;18.544;2023-04-24T09:52:44;21.60;;;17.00;;
71204;SDS011;58935;54.498;18.544;2023-04-24T09:55:16;18.20;;;13.10;;
71204;SDS011;58935;54.498;18.544;2023-04-24T09:57:49;17.30;;;12.60;;
71204;SDS011;58935;54.498;18.544;2023-04-24T10:00:19;17.30;;;13.80;;
71204;SDS011;58935;54.498;18.544;2023-04-24T10:02:50;20.50;;;13.40;;
71204;SDS011;58935;54.498;18.544;2023-04-24T10:05:22;18.50;;;14.60;;
71204;SDS011;58935;54.498;18.544;2023-04-24T10:07:51;21.50;;;16.30;;
71204;SDS011;58935;54.498;18.544;2023-04-24T10:10:16;33.90;;;17.20;;
71204;SDS011;58935;54.498;18.544;2023-04-24T10:12:42;41.50;;;15.10;;
71204;SDS011;58935;54.498;18.544;2023-04-24T10:15:10;35.50;;;13.90;;
71204;SDS011;58935;54.498;18.544;2023-04-24T10:17:38;17.00;;;13.50;;
71204;SDS011;58935;54.498;18.544;2023-04-24T10:20:07;21.50;;;13.70;;
71204;SDS011;58935;54.498;18.544;2023-04-24T10:22:33;18.00;;;13.00;;
71204;SDS011;58935;54.498;18.544;2023-04-24T10:25:01;21.90;;;15.40;;
71204;SDS011;58935;54.498;18.544;2023-04-24T10:27:30;322.30;;;24.70;;
71204;SDS011;58935;54.498;18.544;2023-04-24T10:30:00;26.60;;;16.70;;
71204;SDS011;58935;54.498;18.544;2023-04-24T10:32:26;28.60;;;16.20;;
71204;SDS011;58935;54.498;18.544;2023-04-24T10:34:52;21.20;;;15.40;;
71204;SDS011;58935;54.498;18.544;2023-04-24T10:37:18;21.00;;;15.70;;
71204;SDS011;58935;54.498;18.544;2023-04-24T10:39:50;24.50;;;16.20;;
71204;SDS011;58935;54.498;18.544;2023-04-24T10:42:16;20.00;;;14.50;;
71204;SDS011;58935;54.498;18.544;2023-04-24T10:44:43;20.40;;;12.30;;
71204;SDS011;58935;54.498;18.544;2023-04-24T10:47:13;18.80;;;14.20;;
71204;SDS011;58935;54.498;18.544;2023-04-24T10:49:39;34.80;;;12.80;;
71204;SDS011;58935;54.498;18.544;2023-04-24T10:52:05;17.10;;;13.00;;
71204;SDS011;58935;54.498;18.544;2023-04-24T10:54:36;19.50;;;12.60;;
71204;SDS011;58935;54.498;18.544;2023-04-24T10:59:48;27.50;;;12.30;;
71204;SDS011;58935;54.498;18.544;2023-04-24T11:02:16;15.60;;;11.30;;
71204;SDS011;58935;54.498;18.544;2023-04-24T11:04:43;14.00;;;11.00;;
71204;SDS011;58935;54.498;18.544;2023-04-24T11:07:14;13.00;;;10.10;;
71204;SDS011;58935;54.498;18.544;2023-04-24T11:09:41;25.50;;;17.00;;
71204;SDS011;58935;54.498;18.544;2023-04-24T11:12:10;19.40;;;14.10;;
71204;SDS011;58935;54.498;18.544;2023-04-24T11:22:33;13.90;;;9.80;;
71204;SDS011;58935;54.498;18.544;2023-04-24T11:25:02;16.20;;;10.20;;
71204;SDS011;58935;54.498;18.544;2023-04-24T11:27:38;10.90;;;9.70;;
71204;SDS011;58935;54.498;18.544;2023-04-24T11:30:06;11.70;;;10.30;;
71204;SDS011;58935;54.498;18.544;2023-04-24T11:32:38;18.80;;;12.30;;
71204;SDS011;58935;54.498;18.544;2023-04-24T11:35:08;15.50;;;10.60;;
71204;SDS011;58935;54.498;18.544;2023-04-24T11:37:47;21.60;;;10.50;;
71204;SDS011;58935;54.498;18.544;2023-04-24T11:40:16;30.10;;;10.50;;
71204;SDS011;58935;54.498;18.544;2023-04-24T11:42:47;18.10;;;9.70;;
71204;SDS011;58935;54.498;18.544;2023-04-24T11:45:17;22.80;;;9.30;;
71204;SDS011;58935;54.498;18.544;2023-04-24T11:47:44;9.90;;;8.70;;
71204;SDS011;58935;54.498;18.544;2023-04-24T11:50:12;12.00;;;8.50;;
71204;SDS011;58935;54.498;18.544;2023-04-24T11:55:26;12.90;;;9.00;;
71204;SDS011;58935;54.498;18.544;2023-04-24T11:57:56;13.10;;;9.50;;
71204;SDS011;58935;54.498;18.544;2023-04-24T12:00:26;19.30;;;9.30;;
71204;SDS011;58935;54.498;18.544;2023-04-24T12:05:29;17.30;;;9.10;;
71204;SDS011;58935;54.498;18.544;2023-04-24T12:07:56;11.00;;;8.90;;
71204;SDS011;58935;54.498;18.544;2023-04-24T12:10:24;26.60;;;9.00;;
71204;SDS011;58935;54.498;18.544;2023-04-24T12:12:51;1066.70;;;64.70;;
71204;SDS011;58935;54.498;18.544;2023-04-24T12:15:19;24.70;;;9.50;;
71204;SDS011;58935;54.498;18.544;2023-04-24T12:17:46;11.20;;;9.40;;
71204;SDS011;58935;54.498;18.544;2023-04-24T12:20:13;19.00;;;9.30;;
71204;SDS011;58935;54.498;18.544;2023-04-24T12:22:46;16.90;;;8.30;;
71204;SDS011;58935;54.498;18.544;2023-04-24T12:25:16;12.90;;;7.50;;
71204;SDS011;58935;54.498;18.544;2023-04-24T12:27:44;17.30;;;8.50;;
71204;SDS011;58935;54.498;18.544;2023-04-24T12:30:15;13.60;;;8.20;;
71204;SDS011;58935;54.498;18.544;2023-04-24T12:32:47;7.10;;;6.10;;
71204;SDS011;58935;54.498;18.544;2023-04-24T12:35:19;13.90;;;5.40;;
71204;SDS011;58935;54.498;18.544;2023-04-24T12:37:48;6.10;;;5.40;;
71204;SDS011;58935;54.498;18.544;2023-04-24T12:40:15;11.50;;;5.10;;
71204;SDS011;58935;54.498;18.544;2023-04-24T12:42:45;9.70;;;4.70;;
71204;SDS011;58935;54.498;18.544;2023-04-24T12:45:15;8.40;;;5.00;;
71204;SDS011;58935;54.498;18.544;2023-04-24T12:47:43;10.20;;;4.50;;
71204;SDS011;58935;54.498;18.544;2023-04-24T12:50:14;10.50;;;4.50;;
71204;SDS011;58935;54.498;18.544;2023-04-24T12:52:41;7.40;;;3.70;;
71204;SDS011;58935;54.498;18.544;2023-04-24T12:55:08;111.70;;;7.10;;
71204;SDS011;58935;54.498;18.544;2023-04-24T12:57:38;16.30;;;3.60;;
71204;SDS011;58935;54.498;18.544;2023-04-24T13:00:06;15.10;;;3.50;;
71204;SDS011;58935;54.498;18.544;2023-04-24T13:02:33;11.20;;;3.50;;
71204;SDS011;58935;54.498;18.544;2023-04-24T13:05:00;4.80;;;3.30;;
71204;SDS011;58935;54.498;18.544;2023-04-24T13:07:27;4.20;;;2.90;;
71204;SDS011;58935;54.498;18.544;2023-04-24T13:09:55;10.40;;;3.20;;
71204;SDS011;58935;54.498;18.544;2023-04-24T13:12:21;16.70;;;3.50;;
71204;SDS011;58935;54.498;18.544;2023-04-24T13:14:49;20.00;;;4.00;;
71204;SDS011;58935;54.498;18.544;2023-04-24T13:17:17;7.50;;;3.10;;
71204;SDS011;58935;54.498;18.544;2023-04-24T13:19:43;13.20;;;3.10;;
71204;SDS011;58935;54.498;18.544;2023-04-24T13:22:11;14.00;;;3.40;;
71204;SDS011;58935;54.498;18.544;2023-04-24T13:24:38;32.80;;;3.40;;
71204;SDS011;58935;54.498;18.544;2023-04-24T13:27:06;18.20;;;4.10;;
71204;SDS011;58935;54.498;18.544;2023-04-24T13:29:34;12.80;;;3.70;;
71204;SDS011;58935;54.498;18.544;2023-04-24T13:32:00;4.70;;;3.10;;
71204;SDS011;58935;54.498;18.544;2023-04-24T13:34:26;4.10;;;3.10;;
71204;SDS011;58935;54.498;18.544;2023-04-24T13:36:54;5.70;;;3.00;;
71204;SDS011;58935;54.498;18.544;2023-04-24T13:39:24;5.40;;;2.90;;
71204;SDS011;58935;54.498;18.544;2023-04-24T13:41:51;6.40;;;2.90;;
71204;SDS011;58935;54.498;18.544;2023-04-24T13:44:18;7.40;;;2.90;;
71204;SDS011;58935;54.498;18.544;2023-04-24T13:46:46;7.90;;;3.00;;
71204;SDS011;58935;54.498;18.544;2023-04-24T13:49:13;4.90;;;2.60;;
71204;SDS011;58935;54.498;18.544;2023-04-24T13:51:41;10.70;;;3.60;;
71204;SDS011;58935;54.498;18.544;2023-04-24T13:54:07;12.60;;;3.00;;
71204;SDS011;58935;54.498;18.544;2023-04-24T13:56:33;28.50;;;4.30;;
71204;SDS011;58935;54.498;18.544;2023-04-24T13:58:59;11.10;;;3.10;;
71204;SDS011;58935;54.498;18.544;2023-04-24T14:01:25;4.90;;;2.60;;
71204;SDS011;58935;54.498;18.544;2023-04-24T14:03:52;5.50;;;2.90;;
71204;SDS011;58935;54.498;18.544;2023-04-24T14:06:19;4.10;;;3.10;;
71204;SDS011;58935;54.498;18.544;2023-04-24T14:08:48;4.00;;;2.70;;
71204;SDS011;58935;54.498;18.544;2023-04-24T14:11:15;4.90;;;2.70;;
71204;SDS011;58935;54.498;18.544;2023-04-24T14:13:42;9.90;;;3.00;;
71204;SDS011;58935;54.498;18.544;2023-04-24T14:16:09;2.70;;;2.50;;
71204;SDS011;58935;54.498;18.544;2023-04-24T14:18:35;6.60;;;2.90;;
71204;SDS011;58935;54.498;18.544;2023-04-24T14:21:04;6.70;;;2.50;;
71204;SDS011;58935;54.498;18.544;2023-04-24T14:23:30;4.60;;;2.30;;
71204;SDS011;58935;54.498;18.544;2023-04-24T14:25:57;3.60;;;2.70;;
71204;SDS011;58935;54.498;18.544;2023-04-24T14:28:23;9.10;;;2.70;;
71204;SDS011;58935;54.498;18.544;2023-04-24T14:30:49;4.70;;;2.50;;